createdAt,value
2022-11-06T00:01:18.214Z,19.50
2022-11-06T00:03:48.063Z,19.50
2022-11-06T00:06:39.069Z,19.50
2022-11-06T00:09:12.034Z,19.60
2022-11-06T00:11:43.042Z,19.60
2022-11-06T00:14:15.977Z,19.60
2022-11-06T00:16:49.016Z,19.70
2022-11-06T00:19:19.811Z,19.70
2022-11-06T00:21:51.890Z,19.70
2022-11-06T00:24:21.839Z,19.80
2022-11-06T00:26:54.342Z,19.80
2022-11-06T00:29:24.753Z,19.90
2022-11-06T00:31:54.719Z,19.90
2022-11-06T00:34:25.685Z,20.00
2022-11-06T00:36:55.530Z,20.00
2022-11-06T00:39:25.453Z,20.00
2022-11-06T00:41:55.352Z,20.10
2022-11-06T00:44:25.315Z,20.10
2022-11-06T00:46:55.254Z,20.10
2022-11-06T00:49:25.174Z,20.20
2022-11-06T00:51:55.139Z,20.20
2022-11-06T00:54:24.997Z,20.30
2022-11-06T00:56:55.031Z,20.40
2022-11-06T00:59:24.955Z,20.40
2022-11-06T01:01:54.888Z,20.50
2022-11-06T01:04:27.236Z,20.50
2022-11-06T01:06:58.640Z,20.60
2022-11-06T01:09:30.896Z,20.60
2022-11-06T01:12:16.907Z,20.70
2022-11-06T01:14:47.018Z,20.80
2022-11-06T01:17:16.752Z,20.80
2022-11-06T01:19:46.339Z,20.90
2022-11-06T01:22:16.020Z,20.90
2022-11-06T01:24:45.663Z,21.00
2022-11-06T01:27:26.551Z,21.00
2022-11-06T01:29:57.237Z,21.10
2022-11-06T01:32:26.776Z,21.20
2022-11-06T01:34:56.349Z,21.30
2022-11-06T01:37:25.954Z,21.40
2022-11-06T01:39:55.495Z,21.40
2022-11-06T01:42:25.036Z,21.50
2022-11-06T01:45:13.639Z,21.60
2022-11-06T01:47:43.418Z,21.70
2022-11-06T01:50:14.587Z,21.70
2022-11-06T01:52:45.305Z,21.90
2022-11-06T01:55:23.143Z,21.90
2022-11-06T01:57:53.302Z,22.00
2022-11-06T02:00:23.201Z,22.10
2022-11-06T02:02:53.322Z,22.20
2022-11-06T02:05:23.137Z,22.20
2022-11-06T02:07:55.609Z,22.30
2022-11-06T02:10:25.877Z,22.40
2022-11-06T02:13:26.447Z,22.40
2022-11-06T02:16:24.072Z,22.50
2022-11-06T02:19:20.657Z,22.60
2022-11-06T02:22:23.646Z,22.70
2022-11-06T02:25:17.975Z,22.80
2022-11-06T02:27:53.386Z,22.90
2022-11-06T02:30:23.366Z,23.00
2022-11-06T02:33:10.269Z,23.00
2022-11-06T02:35:48.841Z,23.10
2022-11-06T02:38:26.757Z,23.20
2022-11-06T02:41:00.247Z,23.30
2022-11-06T02:43:41.986Z,23.30
2022-11-06T02:46:17.735Z,23.40
2022-11-06T02:48:55.461Z,23.50
2022-11-06T02:51:28.403Z,23.60
2022-11-06T02:54:03.016Z,23.70
2022-11-06T02:56:38.474Z,23.80
2022-11-06T02:59:21.022Z,23.80
2022-11-06T03:02:06.556Z,23.90
2022-11-06T03:04:50.003Z,23.90
2022-11-06T03:07:32.347Z,24.00
2022-11-06T03:10:03.009Z,24.10
2022-11-06T03:13:00.634Z,24.10
2022-11-06T03:15:51.779Z,24.20
2022-11-06T03:18:35.273Z,24.30
2022-11-06T03:21:20.708Z,24.50
2022-11-06T03:23:56.256Z,24.50
2022-11-06T03:26:50.861Z,24.60
2022-11-06T03:29:51.532Z,24.60
2022-11-06T03:32:30.364Z,24.80
2022-11-06T03:35:14.835Z,24.90
2022-11-06T03:37:56.242Z,25.00
2022-11-06T03:40:30.849Z,25.00
2022-11-06T03:43:04.664Z,25.10
2022-11-06T03:45:35.783Z,25.20
2022-11-06T03:48:33.568Z,25.30
2022-11-06T03:51:06.942Z,25.40
2022-11-06T03:54:00.510Z,25.50
2022-11-06T03:56:54.857Z,25.60
2022-11-06T03:59:28.700Z,25.60
2022-11-06T04:02:00.922Z,25.60
2022-11-06T04:04:38.971Z,25.70
2022-11-06T04:07:19.207Z,25.70
2022-11-06T04:10:15.745Z,25.80
2022-11-06T04:13:06.747Z,25.80
2022-11-06T04:15:53.543Z,25.90
2022-11-06T04:18:23.659Z,26.00
2022-11-06T04:21:36.051Z,26.10
2022-11-06T04:24:51.243Z,26.10
2022-11-06T04:27:59.976Z,26.20
2022-11-06T04:30:36.046Z,26.40
2022-11-06T04:33:22.519Z,26.40
2022-11-06T04:36:26.417Z,26.40
2022-11-06T04:39:20.313Z,26.50
2022-11-06T04:42:07.847Z,26.50
2022-11-06T04:44:48.095Z,26.60
2022-11-06T04:47:21.344Z,26.60
2022-11-06T04:49:54.839Z,26.70
2022-11-06T04:52:30.749Z,26.80
2022-11-06T04:55:01.078Z,26.80
2022-11-06T04:57:30.913Z,26.90
2022-11-06T05:00:00.936Z,26.90
2022-11-06T05:02:30.930Z,27.00
2022-11-06T05:05:00.785Z,27.00
2022-11-06T05:07:33.923Z,27.00
2022-11-06T05:10:07.930Z,27.00
2022-11-06T05:12:37.890Z,27.10
2022-11-06T05:15:08.255Z,27.20
2022-11-06T05:17:38.221Z,27.20
2022-11-06T05:20:09.656Z,27.30
2022-11-06T05:23:03.793Z,27.40
2022-11-06T05:25:37.608Z,27.40
2022-11-06T05:28:09.170Z,27.40
2022-11-06T05:30:40.424Z,27.50
2022-11-06T05:33:10.329Z,27.50
2022-11-06T05:35:40.658Z,27.60
2022-11-06T05:38:10.789Z,27.60
2022-11-06T05:40:41.180Z,27.60
2022-11-06T05:43:11.195Z,27.70
2022-11-06T05:45:41.169Z,27.70
2022-11-06T05:48:11.577Z,27.80
2022-11-06T05:50:41.687Z,27.80
2022-11-06T05:53:11.755Z,27.80
2022-11-06T05:55:41.618Z,27.90
2022-11-06T05:58:11.892Z,27.90
2022-11-06T06:00:42.178Z,28.00
2022-11-06T06:03:13.885Z,28.00
2022-11-06T06:05:43.829Z,28.10
2022-11-06T06:08:14.355Z,28.10
2022-11-06T06:10:48.754Z,28.10
2022-11-06T06:13:18.537Z,28.10
2022-11-06T06:15:48.409Z,28.00
2022-11-06T06:18:18.201Z,28.00
2022-11-06T06:20:47.828Z,28.00
2022-11-06T06:23:17.351Z,28.00
2022-11-06T06:25:46.990Z,28.10
2022-11-06T06:28:16.731Z,28.10
2022-11-06T06:30:46.374Z,28.20
2022-11-06T06:33:15.986Z,28.20
2022-11-06T06:35:45.604Z,28.20
2022-11-06T06:38:15.511Z,28.20
2022-11-06T06:40:45.337Z,28.10
2022-11-06T06:43:14.964Z,28.10
2022-11-06T06:45:44.568Z,28.10
2022-11-06T06:48:14.801Z,28.20
2022-11-06T06:50:44.538Z,28.20
2022-11-06T06:53:15.009Z,28.30
2022-11-06T06:55:44.540Z,28.30
2022-11-06T06:58:17.890Z,28.30
2022-11-06T07:00:48.324Z,28.30
2022-11-06T07:03:17.926Z,28.20
2022-11-06T07:05:48.532Z,28.20
2022-11-06T07:08:22.362Z,28.30
2022-11-06T07:10:52.198Z,28.30
2022-11-06T07:13:22.133Z,28.30
2022-11-06T07:15:52.123Z,28.30
2022-11-06T07:18:22.045Z,28.40
2022-11-06T07:20:51.935Z,28.30
2022-11-06T07:23:24.803Z,28.30
2022-11-06T07:25:55.952Z,28.30
2022-11-06T07:28:26.288Z,28.20
2022-11-06T07:31:00.147Z,28.20
2022-11-06T07:33:30.559Z,28.30
2022-11-06T07:36:19.384Z,28.30
2022-11-06T07:38:49.256Z,28.40
2022-11-06T07:41:19.479Z,28.40
2022-11-06T07:43:52.101Z,28.40
2022-11-06T07:46:22.018Z,28.40
2022-11-06T07:48:53.015Z,28.40
2022-11-06T07:51:23.961Z,28.40
2022-11-06T07:53:53.861Z,28.40
2022-11-06T07:56:24.256Z,28.40
2022-11-06T07:58:55.294Z,28.50
2022-11-06T08:01:25.317Z,28.50
2022-11-06T08:03:55.309Z,28.60
2022-11-06T08:06:25.228Z,28.60
2022-11-06T08:08:58.926Z,28.70
2022-11-06T08:11:29.408Z,28.70
2022-11-06T08:14:01.495Z,28.80
2022-11-06T08:16:32.139Z,28.80
2022-11-06T08:19:01.777Z,28.80
2022-11-06T08:21:31.378Z,28.90
2022-11-06T08:24:00.975Z,28.90
2022-11-06T08:26:31.843Z,28.90
2022-11-06T08:29:01.589Z,28.90
2022-11-06T08:31:31.584Z,28.90
2022-11-06T08:34:01.147Z,28.90
2022-11-06T08:36:30.740Z,28.80
2022-11-06T08:39:00.343Z,28.80
2022-11-06T08:41:29.928Z,28.80
2022-11-06T08:43:59.802Z,28.80
2022-11-06T08:46:29.330Z,28.80
2022-11-06T08:48:59.028Z,28.80
2022-11-06T08:51:34.188Z,28.80
2022-11-06T08:54:03.827Z,28.80
2022-11-06T08:56:33.867Z,28.80
2022-11-06T08:59:03.389Z,28.80
2022-11-06T09:01:33.346Z,28.80
2022-11-06T09:04:03.458Z,28.80
2022-11-06T09:06:33.628Z,28.70
2022-11-06T09:09:03.245Z,28.70
2022-11-06T09:11:34.952Z,28.60
2022-11-06T09:14:04.790Z,28.60
2022-11-06T09:16:34.826Z,28.50
2022-11-06T09:19:04.475Z,28.50
2022-11-06T09:21:38.329Z,28.40
2022-11-06T09:24:08.410Z,28.40
2022-11-06T09:26:38.397Z,28.30
2022-11-06T09:29:08.027Z,28.30
2022-11-06T09:31:37.609Z,28.30
2022-11-06T09:34:07.477Z,28.30
2022-11-06T09:36:38.554Z,28.30
2022-11-06T09:39:08.142Z,28.20
2022-11-06T09:42:08.567Z,28.30
2022-11-06T09:45:17.664Z,28.30
2022-11-06T09:47:54.730Z,28.20
2022-11-06T09:50:31.219Z,28.20
2022-11-06T09:53:14.495Z,28.20
2022-11-06T09:55:47.383Z,28.20
2022-11-06T09:58:28.743Z,28.20
2022-11-06T10:01:00.208Z,28.20
2022-11-06T10:03:42.153Z,28.10
2022-11-06T10:06:15.214Z,28.10
2022-11-06T10:08:46.100Z,28.00
2022-11-06T10:11:57.537Z,28.00
2022-11-06T10:14:52.202Z,27.90
2022-11-06T10:17:59.252Z,27.90
2022-11-06T10:20:36.736Z,27.80
2022-11-06T10:23:41.743Z,27.70
2022-11-06T10:26:22.003Z,27.70
2022-11-06T10:29:30.757Z,27.60
2022-11-06T10:32:36.637Z,27.50
2022-11-06T10:35:29.008Z,27.40
2022-11-06T10:38:19.355Z,27.40
2022-11-06T10:40:52.058Z,27.30
2022-11-06T10:43:38.313Z,27.10
2022-11-06T10:46:32.082Z,27.10
2022-11-06T10:49:04.612Z,26.90
2022-11-06T10:52:14.091Z,26.90
2022-11-06T10:55:15.057Z,26.70
2022-11-06T10:58:06.954Z,26.60
2022-11-06T11:00:40.139Z,26.50
2022-11-06T11:03:28.499Z,26.40
2022-11-06T11:05:58.497Z,26.30
2022-11-06T11:08:45.138Z,26.10
2022-11-06T11:11:33.023Z,26.10
2022-11-06T11:14:20.258Z,26.00
2022-11-06T11:16:50.819Z,25.90
2022-11-06T11:19:43.142Z,25.80
2022-11-06T11:22:27.630Z,25.70
2022-11-06T11:25:09.972Z,25.60
2022-11-06T11:27:45.816Z,25.50
2022-11-06T11:30:31.341Z,25.50
2022-11-06T11:33:01.680Z,25.40
2022-11-06T11:35:33.166Z,25.30
2022-11-06T11:38:15.947Z,25.20
2022-11-06T11:40:51.501Z,25.20
2022-11-06T11:43:29.985Z,25.10
2022-11-06T11:46:06.428Z,25.10
2022-11-06T11:49:00.096Z,25.00
2022-11-06T11:51:46.897Z,24.90
2022-11-06T11:54:27.911Z,24.90
2022-11-06T11:57:21.799Z,24.80
2022-11-06T12:00:02.009Z,24.70
2022-11-06T12:02:38.315Z,24.70
2022-11-06T12:05:19.278Z,24.60
2022-11-06T12:07:57.033Z,24.50
2022-11-06T12:10:43.671Z,24.50
2022-11-06T12:13:21.966Z,24.40
2022-11-06T12:16:20.443Z,24.30
2022-11-06T12:18:58.517Z,24.20
2022-11-06T12:21:37.447Z,24.10
2022-11-06T12:24:16.600Z,24.10
2022-11-06T12:27:25.298Z,24.10
2022-11-06T12:30:19.597Z,24.00
2022-11-06T12:33:45.480Z,24.00
2022-11-06T12:36:16.441Z,23.90
2022-11-06T12:39:05.166Z,23.80
2022-11-06T12:41:45.803Z,23.80
2022-11-06T12:44:17.754Z,23.80
2022-11-06T12:47:26.695Z,23.70
2022-11-06T12:50:40.680Z,23.70
2022-11-06T12:53:31.292Z,23.70
2022-11-06T12:56:28.149Z,23.60
2022-11-06T12:59:37.907Z,23.60
2022-11-06T13:02:38.824Z,23.60
2022-11-06T13:05:49.194Z,23.50
2022-11-06T13:08:46.656Z,23.50
2022-11-06T13:11:42.218Z,23.40
2022-11-06T13:14:45.486Z,23.40
2022-11-06T13:17:30.786Z,23.30
2022-11-06T13:20:33.561Z,23.30
2022-11-06T13:23:18.742Z,23.20
2022-11-06T13:26:27.607Z,23.20
2022-11-06T13:29:04.736Z,23.10
2022-11-06T13:31:56.539Z,23.00
2022-11-06T13:34:35.901Z,23.00
2022-11-06T13:37:18.532Z,22.90
2022-11-06T13:40:06.914Z,22.90
2022-11-06T13:42:44.972Z,22.90
2022-11-06T13:45:16.994Z,22.90
2022-11-06T13:48:16.331Z,22.90
2022-11-06T13:51:19.428Z,22.80
2022-11-06T13:54:11.622Z,22.80
2022-11-06T13:57:21.912Z,22.80
2022-11-06T14:00:20.224Z,22.70
2022-11-06T14:03:28.896Z,22.70
2022-11-06T14:06:10.924Z,22.70
2022-11-06T14:08:58.333Z,22.60
2022-11-06T14:11:54.288Z,22.60
2022-11-06T14:14:30.244Z,22.60
2022-11-06T14:17:24.271Z,22.60
2022-11-06T14:20:28.605Z,22.60
2022-11-06T14:23:18.062Z,22.50
2022-11-06T14:25:59.930Z,22.50
2022-11-06T14:28:45.915Z,22.50
2022-11-06T14:31:54.592Z,22.50
2022-11-06T14:34:34.859Z,22.40
2022-11-06T14:37:48.854Z,22.40
2022-11-06T14:40:33.995Z,22.30
2022-11-06T14:43:14.150Z,22.30
2022-11-06T14:46:12.013Z,22.30
2022-11-06T14:48:46.435Z,22.30
2022-11-06T14:51:17.453Z,22.30
2022-11-06T14:53:58.378Z,22.20
2022-11-06T14:56:40.957Z,22.10
2022-11-06T14:59:39.060Z,22.10
2022-11-06T15:02:30.240Z,22.10
2022-11-06T15:05:07.707Z,22.00
2022-11-06T15:08:15.432Z,22.00
2022-11-06T15:10:56.473Z,22.10
2022-11-06T15:13:28.642Z,22.00
2022-11-06T15:16:06.031Z,22.00
2022-11-06T15:18:39.927Z,22.00
2022-11-06T15:21:12.757Z,21.90
2022-11-06T15:24:05.951Z,21.90
2022-11-06T15:26:47.693Z,21.90
2022-11-06T15:29:36.314Z,21.90
2022-11-06T15:32:16.943Z,21.90
2022-11-06T15:35:03.163Z,21.90
2022-11-06T15:37:44.064Z,21.80
2022-11-06T15:40:35.340Z,21.80
2022-11-06T15:43:29.434Z,21.80
2022-11-06T15:46:18.860Z,21.70
2022-11-06T15:48:49.423Z,21.70
2022-11-06T15:51:28.779Z,21.70
2022-11-06T15:53:58.771Z,21.70
2022-11-06T15:56:36.682Z,21.70
2022-11-06T15:59:14.946Z,21.70
2022-11-06T16:01:51.401Z,21.60
2022-11-06T16:04:25.065Z,21.60
2022-11-06T16:06:59.716Z,21.60
2022-11-06T16:09:30.993Z,21.50
2022-11-06T16:12:01.636Z,21.50
2022-11-06T16:14:41.844Z,21.50
2022-11-06T16:17:28.168Z,21.50
2022-11-06T16:20:02.504Z,21.50
2022-11-06T16:22:36.116Z,21.50
2022-11-06T16:25:09.080Z,21.40
2022-11-06T16:27:41.961Z,21.40
2022-11-06T16:30:26.769Z,21.40
2022-11-06T16:32:56.724Z,21.40
2022-11-06T16:35:40.986Z,21.40
2022-11-06T16:38:40.864Z,21.40
2022-11-06T16:41:35.515Z,21.40
2022-11-06T16:44:34.577Z,21.40
2022-11-06T16:47:23.246Z,21.40
2022-11-06T16:49:55.432Z,21.30
2022-11-06T16:52:41.707Z,21.30
2022-11-06T16:55:27.421Z,21.30
2022-11-06T16:58:01.492Z,21.30
2022-11-06T17:00:34.651Z,21.20
2022-11-06T17:03:10.068Z,21.20
2022-11-06T17:05:40.807Z,21.20
2022-11-06T17:08:38.983Z,21.20
2022-11-06T17:11:23.498Z,21.10
2022-11-06T17:13:54.427Z,21.10
2022-11-06T17:16:27.379Z,21.10
2022-11-06T17:18:57.340Z,21.10
2022-11-06T17:21:29.225Z,21.00
2022-11-06T17:24:12.053Z,21.00
2022-11-06T17:26:49.369Z,21.00
2022-11-06T17:29:22.702Z,21.00
2022-11-06T17:31:54.341Z,21.00
2022-11-06T17:34:25.550Z,21.00
2022-11-06T17:36:55.599Z,21.00
2022-11-06T17:39:26.165Z,21.00
2022-11-06T17:41:56.172Z,20.90
2022-11-06T17:44:26.411Z,21.00
2022-11-06T17:46:56.260Z,20.90
2022-11-06T17:49:26.112Z,20.90
2022-11-06T17:52:00.241Z,20.90
2022-11-06T17:54:33.798Z,20.80
2022-11-06T17:57:06.865Z,20.80
2022-11-06T17:59:40.702Z,20.80
2022-11-06T18:02:29.760Z,20.80
2022-11-06T18:05:07.435Z,20.70
2022-11-06T18:07:39.599Z,20.70
2022-11-06T18:10:09.673Z,20.70
2022-11-06T18:12:42.297Z,20.70
2022-11-06T18:15:12.409Z,20.70
2022-11-06T18:17:41.958Z,20.60
2022-11-06T18:20:13.849Z,20.70
2022-11-06T18:22:43.375Z,20.60
2022-11-06T18:25:12.925Z,20.60
2022-11-06T18:27:42.503Z,20.60
2022-11-06T18:30:13.097Z,20.60
2022-11-06T18:32:42.636Z,20.50
2022-11-06T18:35:12.462Z,20.60
2022-11-06T18:37:42.095Z,20.50
2022-11-06T18:40:12.358Z,20.50
2022-11-06T18:42:43.284Z,20.50
2022-11-06T18:45:13.306Z,20.50
2022-11-06T18:47:42.903Z,20.50
2022-11-06T18:50:12.612Z,20.50
2022-11-06T18:52:57.562Z,20.50
2022-11-06T18:55:27.928Z,20.50
2022-11-06T18:57:57.759Z,20.50
2022-11-06T19:00:29.089Z,20.50
2022-11-06T19:02:58.773Z,20.50
2022-11-06T19:05:28.342Z,20.50
2022-11-06T19:08:00.566Z,20.50
2022-11-06T19:10:35.783Z,20.50
2022-11-06T19:13:05.268Z,20.50
2022-11-06T19:15:34.826Z,20.50
2022-11-06T19:18:04.965Z,20.40
2022-11-06T19:20:34.587Z,20.40
2022-11-06T19:23:06.325Z,20.40
2022-11-06T19:25:35.902Z,20.40
2022-11-06T19:28:05.521Z,20.40
2022-11-06T19:30:36.174Z,20.40
2022-11-06T19:33:06.485Z,20.30
2022-11-06T19:35:36.607Z,20.30
2022-11-06T19:38:10.079Z,20.30
2022-11-06T19:40:39.644Z,20.30
2022-11-06T19:43:11.330Z,20.30
2022-11-06T19:45:42.645Z,20.20
2022-11-06T19:48:12.305Z,20.20
2022-11-06T19:50:59.619Z,20.20
2022-11-06T19:53:30.943Z,20.20
2022-11-06T19:56:00.719Z,20.10
2022-11-06T19:58:30.294Z,20.10
2022-11-06T20:00:59.997Z,20.10
2022-11-06T20:03:29.807Z,20.10
2022-11-06T20:06:02.309Z,20.00
2022-11-06T20:08:35.707Z,20.00
2022-11-06T20:11:11.482Z,20.10
2022-11-06T20:13:43.013Z,20.00
2022-11-06T20:16:17.759Z,20.10
2022-11-06T20:19:01.105Z,20.10
2022-11-06T20:21:31.413Z,20.10
2022-11-06T20:24:02.437Z,20.10
2022-11-06T20:26:32.432Z,20.10
2022-11-06T20:29:03.694Z,20.00
2022-11-06T20:31:35.127Z,20.10
2022-11-06T20:34:05.379Z,20.00
2022-11-06T20:36:37.303Z,20.10
2022-11-06T20:39:07.833Z,20.00
2022-11-06T20:41:38.766Z,20.00
2022-11-06T20:44:10.137Z,20.00
2022-11-06T20:46:39.993Z,20.00
2022-11-06T20:49:10.279Z,20.00
2022-11-06T20:52:11.575Z,19.90
2022-11-06T20:54:30.828Z,19.90
2022-11-06T20:57:00.799Z,19.90
2022-11-06T20:59:31.181Z,19.80
2022-11-06T21:02:01.268Z,19.80
2022-11-06T21:04:31.308Z,19.70
2022-11-06T21:07:02.085Z,19.70
2022-11-06T21:09:31.978Z,19.70
2022-11-06T21:12:02.994Z,19.60
2022-11-06T21:14:32.966Z,19.60
2022-11-06T21:17:05.422Z,19.60
2022-11-06T21:19:38.631Z,19.50
2022-11-06T21:22:08.529Z,19.50
2022-11-06T21:24:38.392Z,19.50
2022-11-06T21:27:08.217Z,19.50
2022-11-06T21:29:38.204Z,19.50
2022-11-06T21:32:08.167Z,19.50
2022-11-06T21:34:41.214Z,19.50
2022-11-06T21:37:11.197Z,19.40
2022-11-06T21:39:44.073Z,19.40
2022-11-06T21:42:14.046Z,19.40
2022-11-06T21:44:43.955Z,19.30
2022-11-06T21:47:13.854Z,19.30
2022-11-06T21:49:55.407Z,19.30
2022-11-06T21:52:45.173Z,19.30
2022-11-06T21:55:34.706Z,19.40
2022-11-06T21:58:07.017Z,19.30
2022-11-06T22:00:41.485Z,19.30
2022-11-06T22:03:14.659Z,19.30
2022-11-06T22:05:45.067Z,19.30
2022-11-06T22:08:15.478Z,19.30
2022-11-06T22:10:45.246Z,19.30
2022-11-06T22:13:16.945Z,19.30
2022-11-06T22:15:47.288Z,19.30
2022-11-06T22:18:16.860Z,19.30
2022-11-06T22:20:47.646Z,19.30
2022-11-06T22:23:18.484Z,19.30
2022-11-06T22:25:48.497Z,19.20
2022-11-06T22:28:18.054Z,19.20
2022-11-06T22:30:47.715Z,19.20
2022-11-06T22:33:18.942Z,19.20
2022-11-06T22:35:49.614Z,19.20
2022-11-06T22:38:19.583Z,19.20
2022-11-06T22:41:00.023Z,19.20
2022-11-06T22:43:30.372Z,19.20
2022-11-06T22:46:05.517Z,19.20
2022-11-06T22:48:35.849Z,19.10
2022-11-06T22:51:10.765Z,19.10
2022-11-06T22:53:40.593Z,19.10
2022-11-06T22:56:10.792Z,19.10
2022-11-06T22:58:41.441Z,19.10
2022-11-06T23:01:12.603Z,19.00
2022-11-06T23:03:42.770Z,19.00
2022-11-06T23:06:12.586Z,19.00
2022-11-06T23:08:46.786Z,19.00
2022-11-06T23:11:21.535Z,19.00
2022-11-06T23:13:52.081Z,19.00
2022-11-06T23:16:47.472Z,19.00
2022-11-06T23:19:19.669Z,19.00
2022-11-06T23:21:49.617Z,19.10
2022-11-06T23:24:19.662Z,19.00
2022-11-06T23:26:49.605Z,19.00
2022-11-06T23:29:19.530Z,19.00
2022-11-06T23:31:51.624Z,19.00
2022-11-06T23:34:21.451Z,19.10
2022-11-06T23:37:01.296Z,19.00
2022-11-06T23:39:31.173Z,19.00
2022-11-06T23:42:01.137Z,19.00
2022-11-06T23:44:53.558Z,19.10
2022-11-06T23:47:23.449Z,19.10
2022-11-06T23:49:54.877Z,19.10
2022-11-06T23:52:25.096Z,19.10
2022-11-06T23:54:55.098Z,19.10
2022-11-06T23:57:30.358Z,19.10
